Time;durP1;ratioP1;P1;durP2;ratioP2;P2;SDS_P1;SDS_P2;PMS_P1;PMS_P2;Temp;Humidity;BMP_temperature;BMP_pressure;BME280_temperature;BME280_humidity;BME280_pressure;Samples;Min_cycle;Max_cycle;Signal;HPM_P1;HPM_P2
2023/07/10 00:01:28;;;;;;;;;;;23.40;42.90;;;19.75;69.01;95857.38;4991976;28;19909;-53
2023/07/10 00:03:54;;;;;;;;;;;23.40;43.00;;;19.77;69.80;95855.13;5011107;28;19909;-48
2023/07/10 00:06:20;;;;;;;;;;;23.40;43.00;;;19.75;68.90;95862.00;5009399;28;19916;-50
2023/07/10 00:08:46;;;;;;;;;;;23.40;43.10;;;19.81;70.57;95863.44;5011494;28;19912;-51
2023/07/10 00:11:22;;;;;;;;;;;23.40;43.10;;;19.73;68.78;95859.59;4999739;28;20387;-49
2023/07/10 00:13:49;;;;;;;;;;;23.30;43.10;;;19.78;69.25;95861.34;5013620;28;19947;-51
2023/07/10 00:16:19;;;;;;;;;;;23.30;43.80;;;19.77;68.10;95863.25;5010149;28;20031;-49
2023/07/10 00:18:46;;;;;;;;;;;23.30;43.20;;;19.77;68.78;95854.34;5001807;28;20369;-49
2023/07/10 00:21:12;;;;;;;;;;;23.30;43.30;;;19.80;68.41;95868.00;5014930;28;19909;-52
2023/07/10 00:23:38;;;;;;;;;;;23.30;43.30;;;19.78;68.42;95870.25;5001844;28;19958;-47
2023/07/10 00:26:35;;;;;;;;;;;23.30;43.30;;;19.75;68.27;95856.59;5015437;28;20007;-47
2023/07/10 00:29:33;;;;;;;;;;;23.30;43.40;;;19.75;67.99;95846.56;4978046;28;19917;-50
2023/07/10 00:32:02;;;;;;;;;;;23.30;43.40;;;19.70;68.64;95843.22;5000134;28;19968;-48
2023/07/10 00:34:28;;;;;;;;;;;23.30;43.40;;;19.71;68.42;95842.09;4988592;28;19969;-50
2023/07/10 00:36:54;;;;;;;;;;;23.30;43.40;;;19.68;68.73;95848.94;4992757;28;19952;-47
2023/07/10 00:39:33;;;;;;;;;;;23.30;43.40;;;19.64;67.67;95831.75;4994397;28;19971;-47
2023/07/10 00:42:21;;;;;;;;;;;23.20;43.40;;;19.65;67.62;95846.88;4981545;28;19918;-48
2023/07/10 00:44:58;;;;;;;;;;;23.30;43.50;;;19.62;68.69;95848.28;4993906;28;19920;-49
2023/07/10 00:47:39;;;;;;;;;;;23.30;43.60;;;19.72;68.13;95851.81;4991482;28;19909;-47
2023/07/10 00:50:19;;;;;;;;;;;23.30;43.60;;;19.77;64.09;95855.13;4993603;28;19914;-44
2023/07/10 00:52:49;;;;;;;;;;;23.20;43.60;;;19.93;65.24;95862.78;4987974;28;20347;-48
2023/07/10 00:55:33;;;;;;;;;;;23.30;43.70;;;20.04;61.03;95872.19;4995125;28;20343;-48
2023/07/10 00:58:18;;;;;;;;;;;23.40;43.60;;;20.14;62.97;95879.19;4991728;28;19936;-49
2023/07/10 01:01:05;;;;;;;;;;;23.40;43.50;;;20.14;64.14;95881.88;4988097;28;20431;-48
2023/07/10 01:03:32;;;;;;;;;;;23.50;43.50;;;20.05;64.37;95898.09;4974419;28;19909;-45
2023/07/10 01:06:27;;;;;;;;;;;23.50;43.40;;;20.04;67.17;95907.34;4980735;28;19957;-48
2023/07/10 01:09:04;;;;;;;;;;;23.50;43.40;;;19.94;66.19;95904.94;4989899;28;19909;-47
2023/07/10 01:11:36;;;;;;;;;;;23.50;43.30;;;19.83;68.65;95899.81;4965312;28;19914;-48
2023/07/10 01:14:07;;;;;;;;;;;23.50;43.40;;;19.73;67.83;95905.53;4964612;28;19910;-47
2023/07/10 01:16:33;;;;;;;;;;;23.40;43.40;;;19.65;67.43;95903.63;4987684;28;19914;-48
2023/07/10 01:18:59;;;;;;;;;;;23.40;43.40;;;19.52;67.70;95907.97;4983138;28;19936;-45
2023/07/10 01:21:37;;;;;;;;;;;23.30;43.50;;;19.52;68.17;95905.28;4993463;28;20042;-46
2023/07/10 01:24:06;;;;;;;;;;;23.20;43.60;;;19.39;67.98;95904.28;4980300;28;19913;-47
2023/07/10 01:26:36;;;;;;;;;;;23.20;43.70;;;19.41;69.21;95904.78;4994116;28;19956;-46
2023/07/10 01:29:02;;;;;;;;;;;23.10;43.70;;;19.36;69.11;95906.81;4987755;28;19920;-47
2023/07/10 01:31:31;;;;;;;;;;;23.10;43.80;;;19.35;68.65;95903.34;4993316;28;19913;-51
2023/07/10 01:34:03;;;;;;;;;;;23.10;43.90;;;19.29;67.69;95903.78;5007220;28;19962;-49
2023/07/10 01:36:37;;;;;;;;;;;23.00;43.90;;;19.28;69.45;95902.22;5005513;28;20311;-50
2023/07/10 01:39:09;;;;;;;;;;;23.00;44.00;;;19.26;68.84;95902.50;5009869;28;19909;-46
2023/07/10 01:41:40;;;;;;;;;;;22.90;44.00;;;19.22;69.33;95901.53;4998015;28;20007;-50
2023/07/10 01:44:30;;;;;;;;;;;23.00;44.20;;;19.18;69.12;95900.59;5006738;28;19913;-49
2023/07/10 01:46:59;;;;;;;;;;;22.90;44.20;;;19.23;68.46;95907.72;4988615;28;20375;-51
2023/07/10 01:49:47;;;;;;;;;;;22.90;44.30;;;19.23;70.45;95903.13;5011659;28;19909;-51
2023/07/10 01:52:16;;;;;;;;;;;22.90;44.30;;;19.23;70.44;95900.44;4994648;28;20338;-48
2023/07/10 01:54:43;;;;;;;;;;;22.90;44.40;;;19.23;69.74;95913.13;4996344;28;20004;-46
2023/07/10 01:57:11;;;;;;;;;;;22.90;44.50;;;19.22;68.99;95925.84;5008299;28;19947;-45
2023/07/10 01:59:38;;;;;;;;;;;22.90;44.50;;;19.17;70.62;95912.47;5006733;28;19948;-46
2023/07/10 02:02:05;;;;;;;;;;;22.80;44.50;;;19.06;72.01;95906.56;5013909;28;19909;-49
2023/07/10 02:04:31;;;;;;;;;;;22.80;44.50;;;19.03;71.62;95909.88;4991534;28;19909;-47
2023/07/10 02:06:57;;;;;;;;;;;22.80;44.60;;;19.02;70.86;95899.38;5009102;28;20295;-46
2023/07/10 02:09:26;;;;;;;;;;;22.80;44.60;;;18.99;70.30;95891.91;5013153;28;19916;-48
2023/07/10 02:11:53;;;;;;;;;;;22.80;44.70;;;18.97;71.86;95891.44;4996827;28;20047;-49
2023/07/10 02:14:20;;;;;;;;;;;22.70;44.80;;;18.97;72.04;95891.44;5014061;28;20007;-47
2023/07/10 02:16:47;;;;;;;;;;;22.70;44.80;;;18.97;71.06;95897.63;5007656;28;20422;-45
2023/07/10 02:19:13;;;;;;;;;;;22.60;44.90;;;18.95;71.00;95892.53;5013986;28;19909;-45
2023/07/10 02:21:40;;;;;;;;;;;22.60;44.90;;;18.88;71.88;95888.69;5013876;28;19909;-49
2023/07/10 02:24:07;;;;;;;;;;;22.60;45.00;;;18.89;71.14;95899.16;5003882;28;19917;-45
2023/07/10 02:26:34;;;;;;;;;;;22.60;45.00;;;18.81;70.22;95893.72;5008719;28;20348;-47
2023/07/10 02:29:00;;;;;;;;;;;22.50;45.10;;;18.82;71.04;95898.81;4994549;28;19961;-46
2023/07/10 02:31:27;;;;;;;;;;;22.60;45.20;;;18.81;71.24;95893.72;5005134;28;19909;-47
2023/07/10 02:33:54;;;;;;;;;;;22.50;45.20;;;18.84;70.63;95903.91;5013097;28;19917;-45
2023/07/10 02:36:22;;;;;;;;;;;22.50;45.20;;;18.83;69.36;95908.47;5008089;28;19916;-48
2023/07/10 02:38:49;;;;;;;;;;;22.50;45.30;;;18.81;69.18;95912.63;5001056;28;19917;-46
2023/07/10 02:41:15;;;;;;;;;;;22.50;45.30;;;18.92;67.49;95916.63;5002061;28;19942;-49
2023/07/10 02:43:41;;;;;;;;;;;22.50;45.30;;;19.00;67.37;95925.91;4994590;28;19909;-50
2023/07/10 02:46:07;;;;;;;;;;;22.50;45.30;;;19.00;66.91;95932.09;5003449;28;19958;-52
2023/07/10 02:48:32;;;;;;;;;;;22.60;45.30;;;18.93;66.38;95934.44;5012453;28;19909;-50
2023/07/10 02:50:58;;;;;;;;;;;22.60;45.30;;;19.01;68.36;95935.59;5013443;28;20367;-51
2023/07/10 02:53:24;;;;;;;;;;;22.60;45.20;;;18.97;67.84;95943.50;5005219;28;19971;-51
2023/07/10 02:55:50;;;;;;;;;;;22.60;45.20;;;18.99;68.23;95935.09;5013535;28;19979;-53
2023/07/10 02:58:16;;;;;;;;;;;22.60;45.20;;;18.95;69.61;95916.81;5009751;28;19994;-53
2023/07/10 03:00:42;;;;;;;;;;;22.60;45.20;;;18.86;69.59;95923.28;5005245;28;19909;-51
2023/07/10 03:03:08;;;;;;;;;;;22.60;45.20;;;18.82;69.88;95919.59;5012899;28;19939;-52
2023/07/10 03:05:34;;;;;;;;;;;22.50;45.20;;;18.79;69.47;95923.72;5010463;28;19909;-50
2023/07/10 03:08:00;;;;;;;;;;;22.50;45.30;;;18.77;69.93;95919.72;4995499;28;20079;-51
2023/07/10 03:10:25;;;;;;;;;;;22.50;45.30;;;18.79;69.84;95928.31;5005519;28;20347;-48
2023/07/10 03:12:51;;;;;;;;;;;22.50;45.40;;;18.77;66.68;95920.53;4986070;28;19909;-49
2023/07/10 03:15:17;;;;;;;;;;;22.50;45.40;;;18.81;65.61;95916.13;4983115;28;19917;-44
2023/07/10 03:17:43;;;;;;;;;;;22.50;45.40;;;18.88;67.29;95913.75;4984267;28;19917;-46
2023/07/10 03:20:10;;;;;;;;;;;22.50;45.50;;;18.87;69.65;95916.78;4979943;28;19915;-44
2023/07/10 03:22:36;;;;;;;;;;;22.50;45.50;;;18.86;68.64;95910.56;4984293;28;19916;-49
2023/07/10 03:25:02;;;;;;;;;;;22.50;45.50;;;18.89;67.33;95909.16;4985537;28;19918;-49
2023/07/10 03:27:29;;;;;;;;;;;22.50;45.50;;;18.83;68.46;95908.47;4984072;28;19999;-48
2023/07/10 03:29:55;;;;;;;;;;;22.50;45.50;;;18.87;68.53;95917.56;4985923;28;19924;-52
2023/07/10 03:32:21;;;;;;;;;;;22.50;45.50;;;18.83;69.32;95921.97;4980936;28;20302;-45
2023/07/10 03:34:49;;;;;;;;;;;22.50;45.50;;;18.84;70.00;95930.91;4984350;28;19918;-45
2023/07/10 03:37:15;;;;;;;;;;;22.50;45.50;;;18.81;69.88;95926.13;4966907;28;19913;-46
2023/07/10 03:39:41;;;;;;;;;;;22.50;45.60;;;18.77;70.87;95928.63;4984119;28;19943;-46
2023/07/10 03:42:07;;;;;;;;;;;22.50;45.60;;;18.68;70.19;95923.16;4983073;28;19949;-45
2023/07/10 03:44:34;;;;;;;;;;;22.50;45.60;;;18.67;68.53;95920.75;4984795;28;20426;-47
2023/07/10 03:47:00;;;;;;;;;;;22.40;45.60;;;18.66;70.79;95927.25;4980794;28;19999;-46
2023/07/10 03:49:26;;;;;;;;;;;22.40;45.70;;;18.68;70.54;95925.84;4984349;28;20016;-50
2023/07/10 03:51:52;;;;;;;;;;;22.40;45.80;;;18.71;68.64;95935.22;4988165;28;19917;-46
2023/07/10 03:54:18;;;;;;;;;;;22.40;45.80;;;18.73;69.09;95928.44;4981047;28;20342;-47
2023/07/10 03:56:44;;;;;;;;;;;22.40;45.80;;;18.68;71.91;95933.16;4985418;28;20427;-48
2023/07/10 03:59:11;;;;;;;;;;;22.40;45.90;;;18.61;72.89;95938.16;4985317;28;26916;-48
2023/07/10 04:01:39;;;;;;;;;;;22.40;45.90;;;18.50;71.50;95934.91;4987463;28;19964;-45
2023/07/10 04:04:05;;;;;;;;;;;22.30;45.90;;;18.44;71.94;95928.06;4984335;28;19913;-47
2023/07/10 04:06:30;;;;;;;;;;;22.30;46.00;;;18.40;71.89;95921.69;4982382;28;20008;-48
2023/07/10 04:08:58;;;;;;;;;;;22.20;46.00;;;18.36;72.75;95926.06;4981215;28;20024;-46
2023/07/10 04:11:26;;;;;;;;;;;22.20;46.10;;;18.35;71.72;95927.19;4983981;28;20012;-46
2023/07/10 04:13:52;;;;;;;;;;;22.20;46.70;;;18.38;72.63;95940.06;4982111;28;19909;-45
2023/07/10 04:16:29;;;;;;;;;;;22.20;46.20;;;18.39;73.26;95950.53;4985097;28;19921;-46
2023/07/10 04:18:55;;;;;;;;;;;22.20;46.20;;;18.36;72.81;95964.63;4948897;28;24642;-46
2023/07/10 04:21:26;;;;;;;;;;;22.20;46.20;;;18.34;74.20;95977.63;4967045;28;20379;-46
2023/07/10 04:23:53;;;;;;;;;;;22.20;46.20;;;18.32;75.40;95979.03;4982144;28;19910;-47
2023/07/10 04:26:21;;;;;;;;;;;22.30;46.30;;;18.33;76.29;95984.09;4980771;28;19913;-49
2023/07/10 04:28:50;;;;;;;;;;;22.30;46.40;;;18.35;74.05;95981.13;4982017;28;19917;-48
2023/07/10 04:31:18;;;;;;;;;;;22.30;46.40;;;18.40;73.63;95983.72;4982473;28;20257;-45
2023/07/10 04:33:45;;;;;;;;;;;22.30;46.40;;;18.42;75.02;95984.19;4987434;28;19960;-46
2023/07/10 04:36:11;;;;;;;;;;;22.40;46.50;;;18.48;73.04;95977.56;4984707;28;19920;-46
2023/07/10 04:38:38;;;;;;;;;;;22.40;46.50;;;18.56;75.16;95989.56;4965948;28;20376;-48
2023/07/10 04:41:07;;;;;;;;;;;22.50;46.70;;;18.63;73.31;95990.72;4982760;28;19987;-46
2023/07/10 04:43:34;;;;;;;;;;;22.50;46.60;;;18.74;73.90;95991.31;4983367;28;19921;-46
2023/07/10 04:46:04;;;;;;;;;;;22.60;46.60;;;18.81;71.98;95988.97;4983475;28;19962;-47
2023/07/10 04:48:31;;;;;;;;;;;22.70;46.60;;;18.93;72.37;95999.22;4984412;28;19975;-45
2023/07/10 04:51:03;;;;;;;;;;;22.70;46.50;;;19.03;74.05;96008.97;4981669;28;19909;-48
2023/07/10 04:53:31;;;;;;;;;;;22.90;46.60;;;19.10;73.55;96012.81;4981122;28;19913;-46
2023/07/10 04:55:57;;;;;;;;;;;23.00;46.60;;;19.20;73.96;96019.84;4983372;28;19910;-46
2023/07/10 04:58:24;;;;;;;;;;;23.10;46.60;;;19.29;74.13;96015.31;4979849;28;19960;-45
2023/07/10 05:00:59;;;;;;;;;;;23.20;46.60;;;19.34;71.75;96017.88;4991814;28;19971;-48
2023/07/10 05:03:26;;;;;;;;;;;23.30;46.50;;;19.46;72.18;96038.09;4975596;28;19945;-46
2023/07/10 05:05:57;;;;;;;;;;;23.40;46.50;;;19.57;73.15;96040.25;4982645;28;20032;-45
2023/07/10 05:08:25;;;;;;;;;;;23.50;46.50;;;19.67;70.99;96070.84;4995167;28;19996;-44
2023/07/10 05:10:54;;;;;;;;;;;23.60;47.10;;;19.77;70.56;96090.28;4995760;28;19910;-44
2023/07/10 05:13:23;;;;;;;;;;;23.60;46.50;;;19.91;69.79;96094.81;4994286;28;19910;-45
2023/07/10 05:15:50;;;;;;;;;;;23.70;46.40;;;20.02;69.35;96098.81;4990662;28;19917;-46
2023/07/10 05:18:16;;;;;;;;;;;23.90;46.50;;;20.14;nan;96082.78;4995651;28;19917;-47
2023/07/10 05:20:47;;;;;;;;;;;23.90;46.40;;;20.26;69.84;96093.00;4995513;28;20008;-48
2023/07/10 05:23:15;;;;;;;;;;;24.00;46.30;;;20.39;69.23;96111.03;4995163;28;19917;-46
2023/07/10 05:25:53;;;;;;;;;;;24.10;46.40;;;20.53;69.31;96119.06;4995757;28;19932;-48
2023/07/10 05:28:19;;;;;;;;;;;24.20;46.40;;;20.69;68.44;96122.91;4992772;28;19941;-46
2023/07/10 05:30:45;;;;;;;;;;;24.30;46.40;;;20.82;68.47;96114.97;4994456;28;19952;-46
2023/07/10 05:33:11;;;;;;;;;;;24.40;46.40;;;20.89;68.51;96115.28;4994518;28;20368;-49
2023/07/10 05:35:36;;;;;;;;;;;24.50;46.30;;;20.94;69.18;96140.31;4995227;28;20011;-49
2023/07/10 05:38:02;;;;;;;;;;;24.50;46.20;;;20.94;71.47;96156.53;4993379;28;20008;-46
2023/07/10 05:40:28;;;;;;;;;;;24.60;46.30;;;20.95;75.46;96179.00;4991959;28;20391;-47
2023/07/10 05:42:54;;;;;;;;;;;24.60;46.60;;;20.61;83.69;96156.16;4993916;28;19963;-46
2023/07/10 05:45:19;;;;;;;;;;;24.40;47.40;;;20.13;89.19;96146.09;4985805;28;19917;-48
2023/07/10 05:47:45;;;;;;;;;;;24.00;48.20;;;19.94;91.97;96149.03;4991798;28;19935;-44
2023/07/10 05:50:11;;;;;;;;;;;23.60;48.80;;;19.80;97.20;96146.41;4993852;28;19910;-46
2023/07/10 05:52:36;;;;;;;;;;;23.30;49.40;;;19.67;99.71;96151.91;4993687;28;19917;-45
2023/07/10 05:55:03;;;;;;;;;;;23.10;50.00;;;19.55;100.00;96157.81;4992690;28;19947;-46
2023/07/10 05:57:28;;;;;;;;;;;22.90;50.80;;;19.53;100.00;96160.84;5001473;28;19940;-44
2023/07/10 05:59:54;;;;;;;;;;;22.80;51.60;;;19.52;100.00;96161.16;4994815;28;20055;-45
2023/07/10 06:02:20;;;;;;;;;;;22.80;52.10;;;19.49;100.00;96153.66;4997897;28;20570;-45
2023/07/10 06:04:45;;;;;;;;;;;22.70;52.30;;;19.46;100.00;96146.16;4997679;28;19914;-45
2023/07/10 06:07:11;;;;;;;;;;;22.70;52.50;;;19.36;100.00;96142.59;4999992;28;20004;-45
2023/07/10 06:09:37;;;;;;;;;;;22.70;52.70;;;19.18;100.00;96139.00;5003745;28;19909;-46
2023/07/10 06:12:03;;;;;;;;;;;22.60;52.90;;;19.17;100.00;96140.06;5011392;28;20376;-46
2023/07/10 06:14:29;;;;;;;;;;;22.60;53.00;;;19.14;100.00;96156.09;5004661;28;20023;-45
2023/07/10 06:16:55;;;;;;;;;;;22.60;53.30;;;19.10;100.00;96166.72;4996483;28;20020;-47
2023/07/10 06:19:21;;;;;;;;;;;22.60;53.50;;;19.07;100.00;96151.13;5011856;28;19916;-46
2023/07/10 06:21:47;;;;;;;;;;;22.60;53.60;;;18.99;100.00;96130.25;5013898;28;19909;-45
2023/07/10 06:24:13;;;;;;;;;;;22.70;54.40;;;18.89;100.00;96133.16;5008137;28;19909;-46
2023/07/10 06:26:39;;;;;;;;;;;22.70;53.90;;;18.87;100.00;96141.59;5007990;28;19909;-47
2023/07/10 06:29:04;;;;;;;;;;;22.70;54.10;;;18.89;100.00;96152.06;5007038;28;20336;-45
2023/07/10 06:31:30;;;;;;;;;;;22.70;54.20;;;19.00;100.00;96158.06;4999194;28;19951;-50
2023/07/10 06:33:56;;;;;;;;;;;22.80;54.40;;;19.10;100.00;96155.13;4988155;28;19966;-46
2023/07/10 06:36:22;;;;;;;;;;;22.90;54.50;;;19.14;100.00;96146.09;5006303;28;20283;-46
2023/07/10 06:38:48;;;;;;;;;;;23.10;54.60;;;19.05;100.00;96139.03;4986187;28;19923;-46
2023/07/10 06:41:14;;;;;;;;;;;23.20;54.60;;;19.26;100.00;96140.16;5013519;28;20031;-46
2023/07/10 06:43:39;;;;;;;;;;;23.30;54.50;;;19.48;100.00;96144.75;5003151;28;19916;-46
2023/07/10 06:46:05;;;;;;;;;;;23.70;54.50;;;19.75;100.00;96140.34;4979847;28;20283;-46
2023/07/10 06:48:32;;;;;;;;;;;24.00;54.40;;;20.03;100.00;96151.78;4996640;28;19917;-45
2023/07/10 06:50:58;;;;;;;;;;;24.30;54.40;;;20.33;100.00;96159.06;5009195;28;19909;-48
2023/07/10 06:53:25;;;;;;;;;;;24.70;54.50;;;20.77;100.00;96159.22;5013629;28;20374;-47
2023/07/10 06:56:00;;;;;;;;;;;25.20;54.40;;;21.11;100.00;96173.91;4998853;28;19909;-45
2023/07/10 06:58:30;;;;;;;;;;;25.70;54.50;;;21.61;100.00;96173.47;4990229;28;19913;-46
2023/07/10 07:00:56;;;;;;;;;;;26.30;54.50;;;22.12;100.00;96186.09;5005989;28;19909;-46
2023/07/10 07:03:22;;;;;;;;;;;27.00;54.30;;;22.53;100.00;96192.06;5012712;28;20490;-48
2023/07/10 07:05:48;;;;;;;;;;;27.50;54.30;;;22.91;96.61;96196.66;4995136;28;20391;-46
2023/07/10 07:08:17;;;;;;;;;;;27.90;54.20;;;23.23;95.52;96206.88;5004475;28;19913;-46
2023/07/10 07:10:44;;;;;;;;;;;28.20;54.10;;;23.40;89.99;96205.94;5012461;28;20283;-45
2023/07/10 07:13:11;;;;;;;;;;;28.50;54.00;;;23.53;90.55;96207.59;5001723;28;19914;-46
2023/07/10 07:15:37;;;;;;;;;;;28.50;53.80;;;23.51;87.50;96198.97;5011454;28;19908;-48
2023/07/10 07:18:04;;;;;;;;;;;28.50;53.80;;;23.47;86.83;96192.63;4993495;28;19913;-46
2023/07/10 07:20:32;;;;;;;;;;;28.40;53.70;;;23.36;85.68;96196.84;5011606;28;19916;-49
2023/07/10 07:22:58;;;;;;;;;;;28.40;53.80;;;23.36;88.90;96199.56;5012137;28;19912;-47
2023/07/10 07:25:26;;;;;;;;;;;28.30;53.80;;;23.37;87.94;96200.38;5005066;28;20012;-45
2023/07/10 07:27:51;;;;;;;;;;;28.20;53.80;;;23.40;90.75;96192.34;5012399;28;19909;-46
2023/07/10 07:30:17;;;;;;;;;;;28.20;53.80;;;23.42;86.89;96195.53;4997927;28;19924;-48
2023/07/10 07:32:44;;;;;;;;;;;28.30;53.80;;;23.41;85.82;96198.56;5004856;28;20139;-45
2023/07/10 07:35:10;;;;;;;;;;;28.30;53.80;;;23.33;86.51;96190.16;5001795;28;19921;-45
2023/07/10 07:37:36;;;;;;;;;;;28.40;53.80;;;23.44;84.52;96181.59;5001049;28;19913;-45
2023/07/10 07:40:03;;;;;;;;;;;28.40;53.60;;;23.85;86.13;96179.97;5012321;28;19909;-44
2023/07/10 07:42:28;;;;;;;;;;;28.80;53.70;;;24.31;83.55;96176.09;5008283;28;19955;-47
2023/07/10 07:44:57;;;;;;;;;;;29.40;53.80;;;24.69;76.52;96173.13;5004061;28;19921;-46
2023/07/10 07:47:25;;;;;;;;;;;29.90;53.60;;;25.03;77.45;96159.31;5012360;28;19913;-45
2023/07/10 07:49:51;;;;;;;;;;;30.50;53.30;;;25.52;70.82;96161.97;4991474;28;19908;-46
2023/07/10 07:52:17;;;;;;;;;;;31.00;52.90;;;25.83;70.33;96172.97;5012143;28;19909;-45
2023/07/10 07:54:43;;;;;;;;;;;31.30;52.80;;;26.24;68.02;96154.56;5005822;28;20437;-45
2023/07/10 07:57:09;;;;;;;;;;;31.70;52.50;;;26.69;67.45;96158.78;5010889;28;19923;-48
2023/07/10 07:59:35;;;;;;;;;;;32.20;52.20;;;27.09;66.01;96173.34;5001726;28;19909;-45
2023/07/10 08:02:00;;;;;;;;;;;32.50;52.10;;;27.25;64.19;96178.81;4998717;28;19909;-46
2023/07/10 08:04:26;;;;;;;;;;;32.50;52.00;;;27.50;66.17;96176.59;5012219;28;19909;-46
2023/07/10 08:06:52;;;;;;;;;;;32.80;51.70;;;27.76;58.87;96178.66;5008978;28;19984;-46
2023/07/10 08:09:18;;;;;;;;;;;33.20;51.50;;;28.13;57.69;96177.06;5012091;28;20400;-45
2023/07/10 08:11:44;;;;;;;;;;;33.50;51.20;;;28.42;59.74;96187.75;5012174;28;19916;-47
2023/07/10 08:14:10;;;;;;;;;;;33.90;50.80;;;28.65;56.38;96182.28;5005756;28;19909;-48
2023/07/10 08:16:36;;;;;;;;;;;34.30;50.40;;;28.93;55.76;96184.66;5012106;28;20326;-45
2023/07/10 08:19:01;;;;;;;;;;;34.60;49.80;;;29.21;57.90;96176.88;5002738;28;19920;-46
2023/07/10 08:21:27;;;;;;;;;;;35.00;49.40;;;29.55;56.30;96168.66;5010781;28;20360;-45
2023/07/10 08:23:53;;;;;;;;;;;35.30;48.90;;;29.70;54.81;96166.91;5011847;28;19909;-46
2023/07/10 08:26:19;;;;;;;;;;;35.60;48.40;;;29.87;52.82;96166.34;4997923;28;19916;-47
2023/07/10 08:28:45;;;;;;;;;;;35.60;48.00;;;30.22;52.84;96167.91;5008410;28;19935;-46
2023/07/10 08:31:10;;;;;;;;;;;35.80;47.70;;;30.33;51.48;96167.97;5005396;28;19909;-46
2023/07/10 08:33:36;;;;;;;;;;;36.10;47.30;;;30.47;51.38;96170.88;5012085;28;19917;-47
2023/07/10 08:36:06;;;;;;;;;;;36.40;47.00;;;30.82;50.73;96169.59;5002181;28;19909;-48
2023/07/10 08:38:34;;;;;;;;;;;36.60;46.50;;;31.13;50.29;96167.44;5008092;28;19958;-50
2023/07/10 08:41:14;;;;;;;;;;;37.00;46.10;;;31.29;49.73;96162.41;5015808;28;20000;-49
2023/07/10 08:43:41;;;;;;;;;;;37.40;45.80;;;31.40;48.18;96160.56;4985899;28;20350;-48
2023/07/10 08:46:24;;;;;;;;;;;37.60;45.00;;;31.64;48.75;96159.06;5015785;28;19912;-48
2023/07/10 08:49:16;;;;;;;;;;;37.70;44.30;;;31.74;46.95;96163.81;4993370;28;20279;-47
2023/07/10 08:52:13;;;;;;;;;;;37.90;43.90;;;31.88;48.50;96162.31;4998359;28;19944;-45
2023/07/10 08:54:43;;;;;;;;;;;38.10;43.40;;;31.78;48.16;96167.38;4992965;28;20378;-47
2023/07/10 08:57:23;;;;;;;;;;;38.30;42.60;;;31.92;48.60;96154.84;4996338;28;19924;-52
2023/07/10 09:00:06;;;;;;;;;;;38.60;42.40;;;32.25;44.80;96156.50;5003004;28;19953;-47
2023/07/10 09:02:43;;;;;;;;;;;38.60;42.00;;;31.85;45.21;96157.56;4994180;28;19909;-46
2023/07/10 09:05:24;;;;;;;;;;;38.60;41.50;;;31.69;46.84;96161.44;5015237;28;20268;-46
2023/07/10 09:07:50;;;;;;;;;;;38.50;41.00;;;31.89;45.08;96159.16;4995081;28;19909;-46
2023/07/10 09:10:47;;;;;;;;;;;38.60;40.70;;;32.10;43.50;96154.91;5014532;28;19909;-48
2023/07/10 09:13:39;;;;;;;;;;;38.70;40.00;;;32.26;44.06;96158.06;4990715;28;19931;-48
2023/07/10 09:16:18;;;;;;;;;;;38.90;39.50;;;32.67;46.00;96155.75;4989336;28;19913;-47
2023/07/10 09:19:14;;;;;;;;;;;39.30;39.40;;;32.72;42.98;96140.78;5001743;28;20009;-49
2023/07/10 09:21:42;;;;;;;;;;;39.50;39.00;;;32.44;43.94;96142.38;4986283;28;19913;-51
2023/07/10 09:24:19;;;;;;;;;;;39.30;38.80;;;32.32;44.75;96136.44;4994484;28;19908;-49
2023/07/10 09:26:45;;;;;;;;;;;39.10;38.60;;;32.28;43.92;96132.88;5005131;28;19916;-46
2023/07/10 09:29:11;;;;;;;;;;;38.80;38.60;;;32.31;43.93;96140.34;5003204;28;19908;-48
2023/07/10 09:31:53;;;;;;;;;;;38.90;38.60;;;32.06;45.71;96148.56;5010779;28;20000;-46
2023/07/10 09:34:29;;;;;;;;;;;38.80;38.40;;;32.15;44.81;96160.78;5013819;28;19927;-46
2023/07/10 09:36:57;;;;;;;;;;;38.80;37.80;;;32.69;43.44;96155.38;4989631;28;20336;-48
2023/07/10 09:39:32;;;;;;;;;;;39.10;37.60;;;32.98;42.46;96156.13;5013931;28;19909;-46
2023/07/10 09:42:02;;;;;;;;;;;39.50;37.30;;;32.92;42.65;96150.19;4995618;28;19917;-47
2023/07/10 09:44:43;;;;;;;;;;;39.60;36.90;;;33.02;43.65;96153.38;5003812;28;19909;-47
2023/07/10 09:47:15;;;;;;;;;;;39.80;36.40;;;33.21;41.98;96144.66;4999054;28;19924;-46
2023/07/10 09:49:56;;;;;;;;;;;40.00;36.10;;;32.94;42.77;96149.81;5000169;28;19913;-50
2023/07/10 09:52:26;;;;;;;;;;;39.80;36.10;;;33.21;41.16;96141.88;4984828;28;19909;-52
2023/07/10 09:55:13;;;;;;;;;;;39.90;36.10;;;32.86;42.22;96146.28;5007823;28;19971;-51
2023/07/10 09:57:50;;;;;;;;;;;40.00;35.50;;;32.81;40.70;96143.94;5013449;28;19917;-48
2023/07/10 10:00:18;;;;;;;;;;;40.00;35.20;;;33.09;40.91;96140.34;5000539;28;19909;-52
2023/07/10 10:02:56;;;;;;;;;;;40.00;35.10;;;33.64;39.79;96141.78;4989291;28;19916;-48
2023/07/10 10:05:23;;;;;;;;;;;40.00;35.00;;;33.50;41.29;96139.06;5013435;28;19909;-46
2023/07/10 10:08:01;;;;;;;;;;;39.90;35.10;;;33.25;42.78;96136.34;4999542;28;20506;-49
2023/07/10 10:10:37;;;;;;;;;;;39.80;35.20;;;33.38;42.46;96135.53;4995788;28;19909;-47
2023/07/10 10:13:26;;;;;;;;;;;39.70;35.30;;;33.14;40.96;96119.84;5005187;28;19932;-48
2023/07/10 10:16:23;;;;;;;;;;;39.50;35.20;;;32.69;42.78;96125.03;5009293;28;20379;-47
2023/07/10 10:19:06;;;;;;;;;;;39.20;35.20;;;32.39;43.47;96112.41;4970913;28;19914;-51
2023/07/10 10:21:35;;;;;;;;;;;39.00;35.30;;;32.79;44.04;96132.50;4975731;28;19916;-48
2023/07/10 10:24:05;;;;;;;;;;;39.20;35.10;;;33.04;42.21;96126.19;5013006;28;19913;-49
2023/07/10 10:26:59;;;;;;;;;;;39.50;35.00;;;33.04;43.31;96117.91;5002922;28;19909;-47
2023/07/10 10:29:55;;;;;;;;;;;39.50;34.70;;;33.63;41.96;96127.19;5010732;28;19920;-48
2023/07/10 10:32:46;;;;;;;;;;;39.80;34.60;;;33.77;40.61;96125.53;5011078;28;19974;-48
2023/07/10 10:35:30;;;;;;;;;;;40.30;34.80;;;34.26;39.82;96126.44;5013008;28;19913;-46
2023/07/10 10:38:18;;;;;;;;;;;40.70;33.90;;;34.42;38.03;96123.16;5006919;28;19919;-46
2023/07/10 10:41:09;;;;;;;;;;;41.20;33.60;;;34.72;37.02;96128.84;5012287;28;19936;-47
2023/07/10 10:44:29;;;;;;;;;;;41.60;33.10;;;34.68;37.55;96125.31;4984370;28;19918;-50
2023/07/10 10:47:38;;;;;;;;;;;41.90;32.50;;;34.66;38.09;96116.66;4966853;28;19913;-49
2023/07/10 10:50:22;;;;;;;;;;;41.60;32.40;;;34.66;38.27;96118.63;4998912;28;19915;-48
2023/07/10 10:53:58;;;;;;;;;;;41.50;32.60;;;34.01;38.18;96115.53;4995157;28;19920;-50
2023/07/10 10:56:38;;;;;;;;;;;41.40;32.20;;;34.65;41.38;96109.53;5006496;28;20358;-50
2023/07/10 10:59:34;;;;;;;;;;;41.30;32.10;;;34.63;38.22;96106.41;4988750;28;19914;-51
2023/07/10 11:02:45;;;;;;;;;;;41.50;32.10;;;34.19;38.24;96107.94;4999082;28;19909;-50
2023/07/10 11:05:36;;;;;;;;;;;41.40;31.60;;;34.59;36.75;96108.41;5012336;28;19913;-52
2023/07/10 11:08:24;;;;;;;;;;;41.40;31.80;;;34.66;38.03;96100.06;4999277;28;19916;-50
2023/07/10 11:10:53;;;;;;;;;;;41.60;31.40;;;34.81;38.03;96097.13;4904548;28;19920;-47
2023/07/10 11:13:37;;;;;;;;;;;42.00;31.20;;;34.81;36.67;96094.38;4988414;28;19916;-47
2023/07/10 11:16:06;;;;;;;;;;;42.10;31.50;;;35.28;36.69;96098.22;4988476;28;19962;-50
2023/07/10 11:18:34;;;;;;;;;;;42.20;30.80;;;35.38;35.28;96094.56;4980728;28;19996;-47
2023/07/10 11:21:02;;;;;;;;;;;42.50;30.80;;;35.59;36.37;96095.50;4991281;28;19931;-46
2023/07/10 11:23:43;;;;;;;;;;;42.60;30.50;;;35.83;35.15;96090.84;5011807;28;19919;-48
2023/07/10 11:26:22;;;;;;;;;;;42.80;30.20;;;35.72;35.86;96095.72;5001069;28;19913;-46
2023/07/10 11:29:27;;;;;;;;;;;42.90;30.00;;;36.07;37.52;96092.50;5008804;28;20012;-46
2023/07/10 11:31:58;;;;;;;;;;;43.00;30.00;;;36.37;34.79;96088.03;5009814;28;19909;-48
2023/07/10 11:34:36;;;;;;;;;;;43.30;30.00;;;36.08;33.54;96084.94;4994605;28;19924;-46
2023/07/10 11:37:03;;;;;;;;;;;43.60;29.80;;;36.32;33.06;96082.97;5006047;28;19910;-48